TimeHST,TemperatureF,Dew PointF,Humidity,Sea Level PressureIn,VisibilityMPH,Wind Direction,Wind SpeedMPH,Gust SpeedMPH,PrecipitationIn,Events,Conditions,WindDirDegrees,DateUTC
12:53 AM,75.9,64.9,69,30.01,10.0,North,4.6,-,N/A,,Mostly Cloudy,10,2013-07-22 10:53:00
1:53 AM,75.9,64.9,69,29.99,10.0,NNW,5.8,-,N/A,,Mostly Cloudy,330,2013-07-22 11:53:00
2:53 AM,75.0,64.9,71,29.98,10.0,NNW,3.5,-,N/A,,Mostly Cloudy,340,2013-07-22 12:53:00
3:53 AM,75.0,64.9,71,29.97,10.0,NW,5.8,-,N/A,,Scattered Clouds,320,2013-07-22 13:53:00
4:53 AM,75.0,66.0,73,29.97,10.0,WNW,4.6,-,N/A,,Scattered Clouds,300,2013-07-22 14:53:00
5:53 AM,75.0,66.0,73,29.98,10.0,Variable,3.5,-,N/A,,Mostly Cloudy,0,2013-07-22 15:53:00
6:53 AM,77.0,68.0,74,29.99,10.0,NNW,4.6,-,N/A,,Mostly Cloudy,330,2013-07-22 16:53:00
7:00 AM,77.0,68.0,74,29.99,10.0,NNW,3.5,-,N/A,,Mostly Cloudy,330,2013-07-22 17:00:00
7:53 AM,78.1,68.0,71,30.00,10.0,NE,3.5,-,N/A,,Scattered Clouds,50,2013-07-22 17:53:00
8:53 AM,82.0,68.0,62,30.01,10.0,NNE,11.5,-,N/A,,Mostly Cloudy,20,2013-07-22 18:53:00
9:53 AM,84.9,68.0,57,30.00,10.0,NNE,10.4,-,N/A,,Mostly Cloudy,30,2013-07-22 19:53:00
10:53 AM,84.9,68.0,57,30.01,10.0,NE,11.5,-,N/A,,Mostly Cloudy,40,2013-07-22 20:53:00
11:53 AM,86.0,68.0,55,29.99,10.0,ENE,11.5,18.4,N/A,,Mostly Cloudy,70,2013-07-22 21:53:00
12:53 PM,86.0,68.0,55,29.98,10.0,East,10.4,19.6,N/A,,Mostly Cloudy,100,2013-07-22 22:53:00
1:53 PM,84.9,69.1,59,29.96,10.0,East,13.8,20.7,N/A,,Mostly Cloudy,80,2013-07-22 23:53:00
2:53 PM,84.0,69.1,61,29.96,10.0,ENE,13.8,20.7,N/A,,Mostly Cloudy,70,2013-07-23 00:53:00
3:53 PM,84.9,69.1,59,29.95,10.0,East,12.7,-,N/A,,Mostly Cloudy,80,2013-07-23 01:53:00
4:53 PM,84.0,69.1,61,29.94,10.0,ENE,9.2,-,N/A,,Mostly Cloudy,70,2013-07-23 02:53:00
5:53 PM,82.9,69.1,63,29.95,10.0,Variable,6.9,-,N/A,,Mostly Cloudy,0,2013-07-23 03:53:00
6:53 PM,82.0,69.1,65,29.96,10.0,NE,8.1,-,N/A,,Mostly Cloudy,40,2013-07-23 04:53:00
7:53 PM,78.1,72.0,81,29.98,10.0,NNE,9.2,-,0.00,Rain,Rain,30,2013-07-23 05:53:00
8:02 PM,77.0,73.4,89,29.99,6.0,NNE,9.2,-,0.00,Rain-Thunderstorm,Thunderstorms and Rain,30,2013-07-23 06:02:00
8:43 PM,75.2,73.4,94,30.00,10.0,North,5.8,-,0.11,Rain,Light Rain,10,2013-07-23 06:43:00
8:53 PM,75.9,73.0,91,30.00,10.0,NNE,4.6,-,0.11,Rain,Light Rain,20,2013-07-23 06:53:00
9:53 PM,77.0,73.0,88,30.01,10.0,North,3.5,-,0.00,,Mostly Cloudy,350,2013-07-23 07:53:00
10:53 PM,77.0,73.0,88,30.01,10.0,NW,3.5,-,N/A,,Scattered Clouds,310,2013-07-23 08:53:00
11:53 PM,75.9,73.0,91,30.01,10.0,NNW,3.5,-,N/A,,Partly Cloudy,340,2013-07-23 09:53:00